Time;durP1;ratioP1;P1;durP2;ratioP2;P2;SDS_P1;SDS_P2;PMS_P1;PMS_P2;Temp;Humidity;BMP_temperature;BMP_pressure;BME280_temperature;BME280_humidity;BME280_pressure;Samples;Min_cycle;Max_cycle;Signal;HPM_P1;HPM_P2
2021/07/09 00:01:14;;;;;;;15.20;13.80;;;19.50;99.90;;;;;;4955589;29;20912;-67
2021/07/09 00:03:41;;;;;;;15.20;13.77;;;19.40;99.90;;;;;;4955840;29;20458;-67
2021/07/09 00:06:07;;;;;;;13.37;12.07;;;19.40;99.90;;;;;;4955600;29;20234;-67
2021/07/09 00:08:33;;;;;;;17.60;14.07;;;19.40;99.90;;;;;;4955576;29;20432;-66
2021/07/09 00:10:59;;;;;;;14.30;12.80;;;19.10;99.90;;;;;;4955363;29;20948;-66
2021/07/09 00:13:24;;;;;;;14.47;13.07;;;19.20;99.90;;;;;;4955135;29;20176;-66
2021/07/09 00:15:50;;;;;;;12.70;11.50;;;19.10;99.90;;;;;;4955367;29;20506;-66
2021/07/09 00:18:16;;;;;;;11.97;10.83;;;19.10;99.90;;;;;;4955133;29;20176;-66
2021/07/09 00:20:41;;;;;;;12.00;11.00;;;18.90;99.90;;;;;;4955383;29;20184;-68
2021/07/09 00:23:07;;;;;;;13.33;12.03;;;18.80;99.90;;;;;;4955457;29;20275;-66
2021/07/09 00:25:33;;;;;;;12.13;11.07;;;18.70;99.90;;;;;;4955880;29;20192;-66
2021/07/09 00:27:58;;;;;;;11.47;10.37;;;18.70;99.90;;;;;;4955154;29;20191;-66
2021/07/09 00:30:24;;;;;;;11.47;10.47;;;18.70;99.90;;;;;;4955209;29;20212;-66
2021/07/09 00:32:49;;;;;;;11.63;10.53;;;18.80;99.90;;;;;;4955218;29;20598;-66
2021/07/09 00:35:15;;;;;;;11.00;9.93;;;19.00;99.90;;;;;;4955280;29;20211;-66
2021/07/09 00:37:40;;;;;;;10.23;9.33;;;18.90;99.90;;;;;;4955109;29;20199;-66
2021/07/09 00:40:08;;;;;;;11.10;10.07;;;18.80;99.90;;;;;;4938185;29;20279;-67
2021/07/09 00:42:34;;;;;;;10.43;9.47;;;18.90;99.90;;;;;;4955141;29;20184;-67
2021/07/09 00:45:01;;;;;;;10.70;9.70;;;18.90;99.90;;;;;;4956037;29;20506;-67
2021/07/09 00:47:27;;;;;;;13.27;9.00;;;18.80;99.90;;;;;;4955668;29;20432;-66
2021/07/09 00:49:52;;;;;;;9.63;8.80;;;18.60;99.90;;;;;;4954994;29;20962;-66
2021/07/09 00:52:18;;;;;;;9.90;8.97;;;18.50;99.90;;;;;;4955385;29;20251;-66
2021/07/09 00:54:43;;;;;;;10.50;9.50;;;18.50;99.90;;;;;;4955165;29;20605;-66
2021/07/09 00:57:11;;;;;;;10.40;9.37;;;18.50;99.90;;;;;;4955108;29;20524;-66
2021/07/09 00:59:36;;;;;;;9.93;9.03;;;18.80;99.90;;;;;;4938118;29;20336;-66
2021/07/09 01:02:03;;;;;;;10.97;9.93;;;18.80;99.90;;;;;;4954945;29;20961;-66
2021/07/09 01:04:28;;;;;;;9.47;8.57;;;19.00;99.90;;;;;;4955175;29;20181;-66
2021/07/09 01:06:54;;;;;;;8.50;7.80;;;18.70;99.90;;;;;;4954910;29;20424;-66
2021/07/09 01:09:20;;;;;;;12.50;8.63;;;18.60;99.90;;;;;;4954820;29;20555;-66
2021/07/09 01:11:50;;;;;;;9.83;7.70;;;18.50;99.90;;;;;;4954949;29;20475;-66
2021/07/09 01:14:19;;;;;;;9.93;8.90;;;18.60;99.90;;;;;;4954965;29;20204;-66
2021/07/09 01:16:45;;;;;;;7.70;6.90;;;18.50;99.90;;;;;;4954809;29;20490;-66
2021/07/09 01:19:14;;;;;;;7.07;6.50;;;18.50;99.90;;;;;;4954601;29;20436;-66
2021/07/09 01:21:41;;;;;;;12.83;7.00;;;18.60;99.90;;;;;;4954978;29;20442;-68
2021/07/09 01:24:08;;;;;;;7.40;6.80;;;18.50;99.90;;;;;;4955091;29;20431;-69
2021/07/09 01:26:35;;;;;;;9.53;6.80;;;18.60;99.90;;;;;;4956902;28;20519;-69
2021/07/09 01:29:01;;;;;;;7.93;7.10;;;18.70;99.90;;;;;;4958013;29;20868;-69
2021/07/09 01:31:27;;;;;;;7.10;6.50;;;18.70;99.90;;;;;;4957992;29;20471;-69
2021/07/09 01:33:52;;;;;;;6.63;6.13;;;18.70;99.90;;;;;;4958140;29;20786;-69
2021/07/09 01:36:18;;;;;;;7.37;6.77;;;18.50;99.90;;;;;;4957123;29;20180;-69
2021/07/09 01:38:44;;;;;;;8.07;7.10;;;18.40;99.90;;;;;;4957912;29;20527;-69
2021/07/09 01:41:09;;;;;;;6.53;6.03;;;18.60;99.90;;;;;;4941151;29;20438;-69
2021/07/09 01:43:35;;;;;;;6.30;5.80;;;18.70;99.90;;;;;;4957978;29;20188;-69
2021/07/09 01:46:01;;;;;;;6.20;5.70;;;18.70;99.90;;;;;;4957957;29;20267;-69
2021/07/09 01:48:26;;;;;;;6.43;5.83;;;18.60;99.90;;;;;;4957741;29;20176;-69
2021/07/09 01:50:52;;;;;;;6.63;6.03;;;18.50;99.90;;;;;;4957770;29;20222;-69
2021/07/09 01:53:18;;;;;;;6.07;5.57;;;18.50;99.90;;;;;;4957957;29;20431;-69
2021/07/09 01:55:43;;;;;;;6.80;6.07;;;18.50;99.90;;;;;;4957799;29;20255;-69
2021/07/09 01:58:10;;;;;;;6.73;6.03;;;18.50;99.90;;;;;;4957432;29;20177;-69
2021/07/09 02:00:36;;;;;;;6.27;5.77;;;18.60;99.90;;;;;;4957654;29;20266;-69
2021/07/09 02:03:02;;;;;;;6.90;6.20;;;18.60;99.90;;;;;;4957444;29;20459;-69
2021/07/09 02:05:28;;;;;;;7.80;6.10;;;18.90;99.90;;;;;;4957620;29;20563;-69
2021/07/09 02:07:55;;;;;;;6.50;5.90;;;19.20;99.90;;;;;;4957712;29;20431;-66
2021/07/09 02:10:27;;;;;;;6.10;5.50;;;19.50;99.90;;;;;;4957261;29;20951;-66
2021/07/09 02:12:54;;;;;;;7.03;6.10;;;19.70;99.90;;;;;;4958244;29;20774;-68
2021/07/09 02:15:24;;;;;;;5.97;5.47;;;19.70;99.90;;;;;;4957261;29;20427;-70
2021/07/09 02:17:50;;;;;;;7.00;4.90;;;19.70;99.90;;;;;;4940321;29;20432;-69
2021/07/09 02:20:18;;;;;;;6.13;5.53;;;19.50;99.90;;;;;;4957236;29;20911;-69
2021/07/09 02:22:45;;;;;;;6.60;5.23;;;19.40;99.90;;;;;;4957332;29;20986;-69
2021/07/09 02:25:13;;;;;;;5.73;4.97;;;19.20;99.90;;;;;;4940277;29;20428;-69
2021/07/09 02:27:40;;;;;;;6.50;5.80;;;18.90;99.90;;;;;;4957101;29;20428;-69
2021/07/09 02:30:11;;;;;;;5.73;5.13;;;18.90;99.90;;;;;;4956977;29;20470;-69
2021/07/09 02:32:38;;;;;;;6.07;5.47;;;19.30;99.90;;;;;;4957088;29;20455;-69
2021/07/09 02:35:06;;;;;;;7.13;6.07;;;19.20;99.90;;;;;;4940162;29;20491;-69
2021/07/09 02:37:31;;;;;;;6.40;5.60;;;19.50;99.90;;;;;;4956748;28;20738;-69
2021/07/09 02:39:58;;;;;;;6.77;6.07;;;19.70;99.90;;;;;;4956814;29;20491;-70
2021/07/09 02:42:24;;;;;;;6.80;6.20;;;20.00;99.90;;;;;;4940112;29;20183;-69
2021/07/09 02:44:49;;;;;;;10.10;5.97;;;20.00;99.90;;;;;;4956906;29;20450;-69
2021/07/09 02:47:15;;;;;;;6.53;5.93;;;19.80;99.90;;;;;;4956810;29;20184;-69
2021/07/09 02:49:40;;;;;;;6.93;6.33;;;19.50;99.90;;;;;;4956932;29;20188;-69
2021/07/09 02:52:07;;;;;;;6.10;5.60;;;19.20;99.90;;;;;;4956799;29;20184;-69
2021/07/09 02:54:33;;;;;;;6.43;5.93;;;18.80;99.90;;;;;;4956664;29;20180;-69
2021/07/09 02:56:58;;;;;;;7.10;6.43;;;18.80;99.90;;;;;;4956548;29;20435;-69
2021/07/09 02:59:24;;;;;;;9.00;6.50;;;18.70;99.90;;;;;;4956757;29;20195;-69
2021/07/09 03:01:49;;;;;;;6.93;6.33;;;18.90;99.90;;;;;;4956585;29;20203;-69
2021/07/09 03:04:15;;;;;;;7.80;7.00;;;18.70;99.90;;;;;;4956535;29;20240;-69
2021/07/09 03:06:50;;;;;;;7.17;6.40;;;18.60;99.90;;;;;;4956482;29;20628;-69
2021/07/09 03:09:16;;;;;;;8.17;7.40;;;18.70;99.90;;;;;;4956209;29;20707;-69
2021/07/09 03:11:42;;;;;;;6.80;6.10;;;18.80;99.90;;;;;;4939382;29;20495;-69
2021/07/09 03:14:08;;;;;;;7.10;6.40;;;18.60;99.90;;;;;;4939405;29;20542;-69
2021/07/09 03:16:35;;;;;;;7.17;6.50;;;18.80;99.90;;;;;;4956091;29;20184;-69
2021/07/09 03:19:02;;;;;;;7.00;6.43;;;18.90;99.90;;;;;;4956018;29;20498;-69
2021/07/09 03:21:28;;;;;;;6.93;6.43;;;19.00;99.90;;;;;;4939277;29;20436;-69
2021/07/09 03:23:53;;;;;;;7.60;7.00;;;19.20;99.90;;;;;;4956238;29;20431;-69
2021/07/09 03:26:19;;;;;;;7.90;7.20;;;19.50;99.90;;;;;;4956161;29;20184;-69
2021/07/09 03:28:44;;;;;;;8.63;7.73;;;19.40;99.90;;;;;;4955921;29;20195;-69
2021/07/09 03:31:11;;;;;;;8.20;7.50;;;19.40;99.90;;;;;;4939578;29;20208;-69
2021/07/09 03:33:37;;;;;;;7.63;6.93;;;19.30;99.90;;;;;;4956062;29;20176;-69
2021/07/09 03:36:04;;;;;;;7.70;7.00;;;19.10;99.90;;;;;;4955874;29;20726;-69
2021/07/09 03:38:30;;;;;;;13.40;8.47;;;19.20;99.90;;;;;;4955738;29;20180;-69
2021/07/09 03:40:56;;;;;;;9.13;8.07;;;19.40;99.90;;;;;;4938991;29;20764;-69
2021/07/09 03:43:21;;;;;;;8.80;7.93;;;19.70;99.90;;;;;;4955905;29;20190;-69
2021/07/09 03:45:47;;;;;;;8.60;7.80;;;19.80;99.90;;;;;;4955787;29;20191;-69
2021/07/09 03:48:12;;;;;;;8.07;7.43;;;19.70;99.90;;;;;;4955044;28;20191;-69
2021/07/09 03:50:38;;;;;;;8.67;7.87;;;19.80;99.90;;;;;;4955624;29;20215;-68
2021/07/09 03:53:05;;;;;;;7.63;6.93;;;20.00;99.90;;;;;;4955799;29;20191;-69
2021/07/09 03:55:30;;;;;;;12.77;7.23;;;20.10;99.90;;;;;;4955765;29;20495;-70
2021/07/09 03:57:56;;;;;;;8.63;7.83;;;20.10;99.90;;;;;;4955799;29;20439;-69
2021/07/09 04:00:21;;;;;;;9.83;8.83;;;20.00;99.90;;;;;;4955589;29;20209;-69
2021/07/09 04:02:47;;;;;;;8.80;7.70;;;19.30;99.90;;;;;;4956067;29;20590;-70
2021/07/09 04:05:13;;;;;;;8.20;7.50;;;19.40;99.90;;;;;;4955584;29;20653;-69
2021/07/09 04:07:39;;;;;;;10.27;7.53;;;19.50;99.90;;;;;;4955529;29;20223;-69
2021/07/09 04:10:05;;;;;;;12.13;7.50;;;19.70;99.90;;;;;;4955590;29;20487;-70
2021/07/09 04:12:31;;;;;;;8.13;7.33;;;19.40;99.90;;;;;;4955647;29;20454;-69
2021/07/09 04:14:56;;;;;;;8.90;7.97;;;19.70;99.90;;;;;;4955485;29;20968;-70
2021/07/09 04:17:22;;;;;;;10.43;9.43;;;19.70;99.90;;;;;;4955456;29;20198;-69
2021/07/09 04:19:49;;;;;;;8.80;7.20;;;19.70;99.90;;;;;;4955370;29;20217;-68
2021/07/09 04:22:15;;;;;;;9.63;7.63;;;20.00;99.90;;;;;;4955282;29;20199;-70
2021/07/09 04:24:41;;;;;;;9.83;7.20;;;20.20;99.90;;;;;;4955547;29;20424;-70
2021/07/09 04:27:07;;;;;;;8.50;7.70;;;20.30;99.90;;;;;;4955312;29;20575;-70
2021/07/09 04:29:32;;;;;;;12.63;8.73;;;20.30;99.90;;;;;;4955337;29;20184;-69
2021/07/09 04:31:58;;;;;;;11.13;8.07;;;20.30;99.90;;;;;;4955332;29;20219;-70
2021/07/09 04:34:23;;;;;;;8.93;7.50;;;20.30;99.90;;;;;;4955381;29;20180;-70
2021/07/09 04:36:49;;;;;;;8.97;8.17;;;20.50;99.90;;;;;;4955161;29;20575;-70
2021/07/09 04:39:15;;;;;;;10.80;8.40;;;20.50;99.90;;;;;;4954115;29;20181;-70
2021/07/09 04:41:40;;;;;;;10.60;7.80;;;20.40;99.90;;;;;;4953371;29;20218;-70
2021/07/09 04:44:06;;;;;;;8.80;8.00;;;20.60;99.90;;;;;;4953366;29;20176;-70
2021/07/09 04:46:31;;;;;;;8.97;8.07;;;20.70;99.90;;;;;;4953170;29;20544;-70
2021/07/09 04:48:57;;;;;;;9.40;8.27;;;20.80;99.90;;;;;;4953026;29;20180;-70
2021/07/09 04:51:22;;;;;;;10.67;9.03;;;20.70;99.90;;;;;;4953507;29;20282;-70
2021/07/09 04:53:48;;;;;;;8.03;7.33;;;20.70;99.90;;;;;;4953515;29;20172;-70
2021/07/09 04:56:13;;;;;;;8.20;7.40;;;20.70;99.90;;;;;;4954889;29;20192;-70
2021/07/09 04:58:39;;;;;;;12.70;7.27;;;20.40;99.90;;;;;;4954927;29;20184;-70
2021/07/09 05:01:04;;;;;;;7.87;7.17;;;20.40;99.90;;;;;;4958276;28;20196;-69
2021/07/09 05:03:30;;;;;;;14.43;7.90;;;20.60;99.90;;;;;;4958738;29;20188;-70
2021/07/09 05:05:55;;;;;;;9.30;7.20;;;20.80;99.90;;;;;;4958724;29;20650;-70
2021/07/09 05:08:21;;;;;;;8.40;7.30;;;20.60;99.90;;;;;;4958438;29;20218;-70
2021/07/09 05:10:46;;;;;;;8.50;7.70;;;20.30;99.90;;;;;;4958484;29;20663;-70
2021/07/09 05:13:12;;;;;;;11.53;8.13;;;20.00;99.90;;;;;;4958571;29;20212;-70
2021/07/09 05:15:38;;;;;;;11.67;8.70;;;20.00;99.90;;;;;;4958507;29;20192;-70
2021/07/09 05:18:03;;;;;;;9.00;8.20;;;20.30;99.90;;;;;;4958192;29;20640;-70
2021/07/09 05:20:29;;;;;;;9.47;8.57;;;20.20;99.90;;;;;;4958362;29;20580;-70
2021/07/09 05:22:54;;;;;;;10.03;7.57;;;20.40;99.90;;;;;;4958404;29;20180;-70
2021/07/09 05:25:20;;;;;;;9.20;8.23;;;20.50;99.90;;;;;;4958314;29;20212;-70
2021/07/09 05:27:46;;;;;;;9.60;8.60;;;20.60;99.90;;;;;;4958425;29;20212;-70
2021/07/09 05:30:12;;;;;;;12.00;7.90;;;20.70;99.90;;;;;;4958210;29;20196;-70
2021/07/09 05:32:41;;;;;;;9.10;8.23;;;21.00;99.90;;;;;;4958388;29;20197;-70
2021/07/09 05:35:06;;;;;;;8.07;7.23;;;21.20;99.90;;;;;;4941555;29;20491;-70
2021/07/09 05:37:33;;;;;;;9.50;8.60;;;21.70;99.90;;;;;;4958624;29;20424;-70
2021/07/09 05:39:58;;;;;;;8.53;7.73;;;22.00;1.00;;;;;;4958751;29;20443;-67
2021/07/09 05:42:24;;;;;;;8.43;6.50;;;22.00;1.00;;;;;;4958326;29;20436;-67
2021/07/09 05:44:50;;;;;;;14.30;7.10;;;22.10;1.00;;;;;;4958166;29;20196;-69
2021/07/09 05:47:16;;;;;;;9.93;9.00;;;22.20;1.00;;;;;;4957881;29;20960;-69
2021/07/09 05:49:42;;;;;;;8.97;8.17;;;21.90;1.00;;;;;;4957092;29;20475;-69
2021/07/09 05:52:09;;;;;;;9.13;7.90;;;21.30;52.30;;;;;;4958006;29;20181;-67
2021/07/09 05:54:35;;;;;;;11.17;8.43;;;21.00;99.90;;;;;;4957831;29;20681;-67
2021/07/09 05:57:01;;;;;;;12.03;8.00;;;20.60;99.90;;;;;;4957671;29;20427;-67
2021/07/09 05:59:26;;;;;;;8.50;7.33;;;20.50;99.90;;;;;;4940984;29;20522;-67
2021/07/09 06:01:53;;;;;;;7.77;7.07;;;20.70;99.90;;;;;;4957671;29;20629;-67
2021/07/09 06:04:18;;;;;;;7.77;6.97;;;21.00;99.90;;;;;;4957748;29;20177;-67
2021/07/09 06:06:44;;;;;;;7.73;7.03;;;21.30;99.90;;;;;;4957498;29;20804;-67
2021/07/09 06:09:10;;;;;;;10.37;8.60;;;21.60;74.30;;;;;;4957397;29;20230;-67
2021/07/09 06:11:36;;;;;;;8.90;8.00;;;21.20;99.90;;;;;;4957016;28;20215;-67
2021/07/09 06:14:02;;;;;;;7.43;6.80;;;21.40;99.90;;;;;;4958140;29;20732;-69
2021/07/09 06:16:27;;;;;;;8.57;7.53;;;21.40;99.90;;;;;;4940789;29;20436;-69
2021/07/09 06:18:53;;;;;;;7.67;6.90;;;21.40;99.90;;;;;;4940503;29;20432;-69
2021/07/09 06:21:18;;;;;;;7.40;6.80;;;21.40;56.90;;;;;;4957124;29;20211;-67
2021/07/09 06:23:45;;;;;;;7.27;6.60;;;21.40;99.30;;;;;;4957305;29;20195;-67
2021/07/09 06:26:10;;;;;;;8.90;7.37;;;21.50;29.30;;;;;;4957226;29;20184;-67
2021/07/09 06:28:36;;;;;;;8.13;7.33;;;21.60;62.80;;;;;;4957000;29;20506;-67
2021/07/09 06:31:03;;;;;;;7.90;7.10;;;21.80;1.00;;;;;;4939961;29;20262;-67
2021/07/09 06:33:29;;;;;;;8.27;7.43;;;21.90;1.00;;;;;;4957629;29;20176;-67
2021/07/09 06:35:54;;;;;;;9.87;5.97;;;21.70;1.00;;;;;;4957369;29;20439;-68
2021/07/09 06:38:20;;;;;;;7.37;6.50;;;21.60;5.80;;;;;;4957206;29;20180;-67
2021/07/09 06:40:45;;;;;;;6.43;5.83;;;21.40;35.50;;;;;;4940434;29;20184;-69
2021/07/09 06:43:12;;;;;;;8.13;6.63;;;21.60;95.30;;;;;;4957501;29;20215;-70
2021/07/09 06:45:39;;;;;;;8.93;6.30;;;21.50;1.00;;;;;;4957224;29;20530;-66
2021/07/09 06:48:06;;;;;;;6.50;6.00;;;21.40;89.30;;;;;;4957265;29;20526;-68
2021/07/09 06:50:31;;;;;;;7.37;6.67;;;21.20;99.90;;;;;;4956825;29;20469;-68
2021/07/09 06:52:57;;;;;;;7.00;5.50;;;21.10;99.90;;;;;;4957471;29;20416;-67
2021/07/09 06:55:23;;;;;;;7.00;6.23;;;21.20;99.90;;;;;;4940205;29;20845;-69
2021/07/09 06:57:48;;;;;;;7.23;6.53;;;21.50;89.50;;;;;;4957038;29;20184;-66
2021/07/09 07:00:18;;;;;;;6.83;6.10;;;21.50;95.10;;;;;;4957538;29;20242;-69
2021/07/09 07:02:45;;;;;;;8.13;6.87;;;21.30;99.90;;;;;;4940793;29;20287;-68
2021/07/09 07:05:12;;;;;;;6.60;5.93;;;21.30;99.90;;;;;;4958140;29;20435;-68
2021/07/09 07:07:37;;;;;;;7.47;6.10;;;21.30;99.90;;;;;;4956548;29;20436;-70
2021/07/09 07:10:08;;;;;;;9.27;6.40;;;21.30;99.90;;;;;;4933116;28;20843;-64
2021/07/09 07:12:33;;;;;;;6.13;5.63;;;21.20;99.90;;;;;;4955979;28;20841;-66
2021/07/09 07:14:59;;;;;;;9.80;6.97;;;21.70;99.90;;;;;;4955704;28;20522;-66
2021/07/09 07:17:25;;;;;;;7.37;6.77;;;21.90;99.90;;;;;;4956419;29;20187;-63
2021/07/09 07:19:50;;;;;;;6.97;5.40;;;21.80;98.40;;;;;;4955812;29;20201;-66
2021/07/09 07:22:16;;;;;;;7.10;6.50;;;21.60;99.90;;;;;;4955448;28;20218;-66
2021/07/09 07:24:41;;;;;;;9.50;6.63;;;21.40;99.90;;;;;;4954894;29;20180;-68
2021/07/09 07:27:07;;;;;;;6.80;6.20;;;21.10;99.90;;;;;;4955597;29;20677;-66
2021/07/09 07:29:33;;;;;;;6.73;6.10;;;21.40;99.90;;;;;;4955903;29;20203;-70
2021/07/09 07:31:59;;;;;;;8.07;7.37;;;21.60;99.90;;;;;;4962240;28;20568;-71
2021/07/09 07:34:24;;;;;;;6.67;6.07;;;21.50;99.90;;;;;;4970703;28;20802;-68
2021/07/09 07:36:50;;;;;;;7.23;6.23;;;21.40;99.90;;;;;;4955561;29;20443;-68
2021/07/09 07:39:16;;;;;;;6.63;5.93;;;21.30;99.90;;;;;;4964618;28;20184;-67
2021/07/09 07:41:42;;;;;;;6.67;6.07;;;21.30;99.90;;;;;;4961517;28;20188;-69
2021/07/09 07:44:08;;;;;;;7.20;5.83;;;21.40;99.90;;;;;;4944331;28;20184;-70
2021/07/09 07:46:34;;;;;;;6.43;5.67;;;21.40;52.40;;;;;;4966735;28;20761;-69
2021/07/09 07:49:03;;;;;;;6.83;5.50;;;21.50;14.60;;;;;;4961857;28;20450;-69
2021/07/09 07:51:29;;;;;;;5.97;5.20;;;21.10;9.60;;;;;;4955431;29;20491;-67
2021/07/09 07:53:55;;;;;;;8.40;5.13;;;21.00;8.60;;;;;;4955654;29;20951;-64
2021/07/09 07:56:21;;;;;;;7.13;4.63;;;21.10;5.40;;;;;;4955382;29;20214;-66
2021/07/09 07:58:51;;;;;;;6.67;5.23;;;21.30;1.00;;;;;;4955121;29;20186;-65
2021/07/09 08:01:17;;;;;;;4.60;4.20;;;21.10;1.00;;;;;;4955588;29;20427;-67
2021/07/09 08:03:42;;;;;;;11.13;5.10;;;20.90;3.80;;;;;;4938394;29;20458;-68
2021/07/09 08:06:08;;;;;;;5.23;3.87;;;21.10;1.00;;;;;;4974078;28;20640;-69
2021/07/09 08:08:33;;;;;;;5.67;4.80;;;21.10;1.00;;;;;;4974524;28;20262;-69
2021/07/09 08:10:59;;;;;;;5.90;5.37;;;21.40;1.00;;;;;;4974595;28;20215;-68
2021/07/09 08:13:25;;;;;;;5.23;4.70;;;21.40;1.00;;;;;;4974721;28;20179;-69
2021/07/09 08:15:51;;;;;;;8.90;4.47;;;21.80;1.00;;;;;;4974713;28;20900;-69
2021/07/09 08:18:17;;;;;;;5.57;5.03;;;22.10;1.00;;;;;;4974607;28;20802;-70
2021/07/09 08:20:43;;;;;;;5.10;4.70;;;22.50;99.90;;;;;;4966196;28;20188;-69
2021/07/09 08:23:09;;;;;;;7.40;4.77;;;22.20;99.90;;;;;;4955164;29;20204;-67
2021/07/09 08:25:35;;;;;;;6.53;4.60;;;22.10;99.90;;;;;;4955418;29;20420;-68
2021/07/09 08:28:01;;;;;;;7.50;4.50;;;21.90;1.00;;;;;;4955427;29;20818;-67
2021/07/09 08:30:27;;;;;;;4.73;4.17;;;21.70;1.00;;;;;;4955190;29;20468;-67
2021/07/09 08:32:52;;;;;;;4.00;3.70;;;21.90;1.00;;;;;;4955222;29;20852;-68
2021/07/09 08:35:18;;;;;;;4.87;4.30;;;21.90;1.00;;;;;;4957801;28;20557;-66
2021/07/09 08:37:43;;;;;;;5.20;4.80;;;22.00;1.00;;;;;;4959097;29;20180;-66
2021/07/09 08:40:10;;;;;;;15.33;4.83;;;22.00;1.00;;;;;;4977759;28;20183;-67
2021/07/09 08:42:39;;;;;;;4.63;4.23;;;21.70;1.00;;;;;;4978238;28;20222;-69
2021/07/09 08:45:08;;;;;;;5.17;4.60;;;22.00;1.00;;;;;;4978317;28;20435;-69
2021/07/09 08:47:35;;;;;;;8.20;4.50;;;22.30;99.90;;;;;;4978121;28;20458;-67
2021/07/09 08:50:06;;;;;;;4.80;4.40;;;22.70;99.90;;;;;;4978001;28;20431;-66
2021/07/09 08:52:36;;;;;;;5.50;5.00;;;22.50;99.90;;;;;;4977834;28;20494;-64
2021/07/09 08:55:05;;;;;;;7.43;4.50;;;22.90;99.90;;;;;;4968419;28;20439;-67
2021/07/09 08:57:31;;;;;;;4.57;3.77;;;23.00;24.10;;;;;;4958713;29;20451;-65
2021/07/09 08:59:56;;;;;;;4.47;4.07;;;23.70;99.90;;;;;;4959081;29;20873;-64
2021/07/09 09:02:27;;;;;;;4.00;3.60;;;24.10;1.00;;;;;;4958741;29;20465;-63
2021/07/09 09:04:53;;;;;;;4.67;4.00;;;24.70;99.90;;;;;;4941922;29;20524;-67
2021/07/09 09:07:19;;;;;;;5.10;4.17;;;24.70;1.00;;;;;;4958810;29;20519;-69
2021/07/09 09:09:44;;;;;;;6.67;3.97;;;24.70;1.00;;;;;;4958525;29;20510;-69
2021/07/09 09:12:13;;;;;;;5.23;4.43;;;23.90;99.90;;;;;;4958537;29;20203;-67
2021/07/09 09:14:48;;;;;;;4.20;3.30;;;23.70;24.50;;;;;;4958754;29;20176;-70
2021/07/09 09:17:32;;;;;;;4.00;3.70;;;23.20;1.00;;;;;;4958514;29;20435;-69
2021/07/09 09:20:17;;;;;;;4.00;3.60;;;23.10;99.90;;;;;;4958357;29;20858;-69
2021/07/09 09:22:49;;;;;;;5.70;3.77;;;23.30;1.00;;;;;;4958220;29;20437;-67
2021/07/09 09:25:16;;;;;;;3.80;3.40;;;23.80;1.00;;;;;;4956144;28;20964;-68
2021/07/09 09:27:41;;;;;;;4.27;3.97;;;23.80;1.00;;;;;;4963776;28;20481;-72
2021/07/09 09:30:14;;;;;;;5.33;4.80;;;24.00;1.00;;;;;;4977614;28;20502;-68
2021/07/09 09:32:48;;;;;;;4.37;4.03;;;25.00;1.00;;;;;;4977797;28;20242;-68
2021/07/09 09:35:38;;;;;;;7.47;3.83;;;24.90;99.90;;;;;;4977459;28;20422;-67
2021/07/09 09:38:27;;;;;;;4.10;3.80;;;24.50;99.90;;;;;;4977233;28;20514;-68
2021/07/09 09:40:54;;;;;;;4.00;3.60;;;24.30;2.70;;;;;;4961548;28;20535;-68
2021/07/09 09:43:23;;;;;;;7.10;4.97;;;23.90;99.90;;;;;;4958522;29;20431;-70
2021/07/09 09:46:03;;;;;;;4.90;4.50;;;24.30;1.00;;;;;;4957442;28;20432;-68
2021/07/09 09:48:54;;;;;;;3.77;3.47;;;23.90;44.10;;;;;;4957637;29;20470;-66
2021/07/09 09:51:30;;;;;;;4.73;3.67;;;23.20;99.90;;;;;;4953963;29;20538;-66
2021/07/09 09:53:58;;;;;;;4.13;3.73;;;22.50;1.00;;;;;;4957680;29;20459;-66
2021/07/09 09:56:40;;;;;;;5.20;4.10;;;22.70;1.00;;;;;;4957885;29;20424;-66
2021/07/09 09:59:23;;;;;;;4.90;3.77;;;23.00;99.90;;;;;;4957704;29;20463;-67
2021/07/09 10:01:52;;;;;;;4.37;4.07;;;23.00;99.90;;;;;;4940820;29;20452;-66
2021/07/09 10:04:18;;;;;;;4.17;3.77;;;23.10;99.90;;;;;;4957971;29;20498;-68
2021/07/09 10:06:44;;;;;;;4.33;3.93;;;22.70;1.00;;;;;;4957477;29;20482;-69
2021/07/09 10:09:11;;;;;;;6.37;4.60;;;22.30;99.90;;;;;;4957718;29;20436;-69
2021/07/09 10:11:38;;;;;;;3.93;3.47;;;22.60;99.90;;;;;;4957556;29;20542;-69
2021/07/09 10:14:09;;;;;;;5.20;4.67;;;22.60;1.00;;;;;;4940778;29;20440;-69
2021/07/09 10:16:36;;;;;;;4.00;3.70;;;22.70;1.00;;;;;;4957732;29;20424;-68
2021/07/09 10:19:04;;;;;;;3.90;3.60;;;22.50;99.90;;;;;;4940678;29;21028;-68
2021/07/09 10:21:30;;;;;;;4.47;4.03;;;22.40;99.90;;;;;;4957618;29;20490;-66
2021/07/09 10:23:55;;;;;;;4.17;3.80;;;23.00;99.90;;;;;;4957522;29;20522;-66
2021/07/09 10:26:21;;;;;;;5.40;4.90;;;22.70;99.90;;;;;;4957491;29;20522;-67
2021/07/09 10:29:10;;;;;;;4.90;3.53;;;22.60;99.90;;;;;;4957072;29;20205;-67
2021/07/09 10:31:37;;;;;;;5.50;4.97;;;22.50;99.90;;;;;;4975320;28;20243;-67
2021/07/09 10:34:26;;;;;;;3.80;3.50;;;22.60;99.90;;;;;;4969489;28;20913;-67
2021/07/09 10:36:54;;;;;;;7.03;4.00;;;22.70;99.90;;;;;;4957018;29;20424;-67
2021/07/09 10:39:34;;;;;;;5.10;4.60;;;22.40;99.90;;;;;;4973068;28;20868;-67
2021/07/09 10:42:15;;;;;;;5.37;4.90;;;22.30;99.90;;;;;;4976559;28;20767;-67
2021/07/09 10:45:01;;;;;;;4.17;3.87;;;21.90;99.90;;;;;;4976242;28;20450;-68
2021/07/09 10:47:51;;;;;;;4.77;4.37;;;22.30;99.90;;;;;;4976312;28;20749;-67
2021/07/09 10:50:32;;;;;;;5.73;4.50;;;22.20;99.90;;;;;;4975708;28;20470;-67
2021/07/09 10:52:59;;;;;;;5.07;4.67;;;21.90;1.00;;;;;;4975981;28;20758;-68
2021/07/09 10:55:25;;;;;;;6.67;4.43;;;21.90;1.00;;;;;;4962826;28;20439;-67
2021/07/09 10:58:19;;;;;;;5.90;4.83;;;22.00;1.00;;;;;;4956422;28;20570;-66
2021/07/09 11:00:55;;;;;;;5.13;4.73;;;21.90;1.00;;;;;;4956594;29;20235;-67
2021/07/09 11:03:38;;;;;;;5.30;4.83;;;21.90;1.00;;;;;;4956354;29;20896;-68
2021/07/09 11:06:19;;;;;;;6.20;5.60;;;21.80;1.00;;;;;;4956600;29;20436;-69
2021/07/09 11:08:57;;;;;;;4.57;4.03;;;22.10;1.00;;;;;;4956183;29;20443;-68
2021/07/09 11:11:36;;;;;;;5.50;5.00;;;21.90;1.00;;;;;;4956253;29;20471;-68
2021/07/09 11:14:04;;;;;;;5.57;5.07;;;22.00;1.00;;;;;;4956184;29;20432;-68
2021/07/09 11:16:36;;;;;;;4.80;4.40;;;22.20;99.90;;;;;;4956788;29;20424;-68
2021/07/09 11:19:04;;;;;;;5.17;4.13;;;22.20;1.00;;;;;;4956683;29;20723;-68
2021/07/09 11:21:29;;;;;;;5.50;5.00;;;22.30;99.90;;;;;;4956693;29;20502;-68
2021/07/09 11:23:59;;;;;;;5.50;4.93;;;22.20;99.90;;;;;;4956719;29;20439;-68
2021/07/09 11:26:29;;;;;;;5.73;4.67;;;22.30;99.90;;;;;;4956330;29;20192;-68
2021/07/09 11:28:57;;;;;;;6.03;4.53;;;22.30;99.90;;;;;;4939216;29;20443;-68
2021/07/09 11:31:35;;;;;;;6.10;4.43;;;22.20;99.90;;;;;;4956524;29;20479;-68
2021/07/09 11:34:12;;;;;;;4.77;4.37;;;22.10;99.90;;;;;;4956415;29;20935;-68
2021/07/09 11:36:46;;;;;;;6.97;5.27;;;22.50;99.90;;;;;;4955773;29;20442;-70
2021/07/09 11:39:17;;;;;;;5.00;4.43;;;22.70;99.90;;;;;;4970202;28;20821;-69
2021/07/09 11:41:56;;;;;;;8.27;5.20;;;22.70;99.90;;;;;;4974933;28;20435;-71
2021/07/09 11:44:26;;;;;;;5.20;4.70;;;23.00;1.00;;;;;;4957545;28;20438;-71
2021/07/09 11:46:55;;;;;;;5.50;4.37;;;23.10;90.60;;;;;;4975268;28;20451;-69
2021/07/09 11:49:27;;;;;;;4.87;4.57;;;23.20;1.00;;;;;;4957961;28;20466;-70
2021/07/09 11:52:01;;;;;;;5.27;4.83;;;22.90;1.00;;;;;;4974723;28;20475;-69
2021/07/09 11:54:29;;;;;;;5.07;4.17;;;22.60;99.90;;;;;;4969847;28;20450;-70
2021/07/09 11:56:58;;;;;;;5.23;4.73;;;22.70;99.90;;;;;;4938772;29;20487;-70
2021/07/09 11:59:25;;;;;;;5.30;4.80;;;22.70;99.90;;;;;;4955693;29;20443;-70
2021/07/09 12:02:00;;;;;;;5.83;5.33;;;22.90;1.00;;;;;;4938563;29;20451;-70
2021/07/09 12:04:31;;;;;;;5.60;5.20;;;23.00;99.90;;;;;;4938632;29;20559;-70
2021/07/09 12:07:21;;;;;;;6.23;5.73;;;22.70;1.00;;;;;;4938408;29;20976;-70
2021/07/09 12:10:04;;;;;;;6.47;5.90;;;22.70;1.00;;;;;;4937444;29;20458;-69
2021/07/09 12:12:53;;;;;;;6.10;5.50;;;22.70;1.00;;;;;;4955860;29;20600;-68
2021/07/09 12:15:20;;;;;;;7.07;6.37;;;22.60;1.00;;;;;;4955632;29;20909;-69
2021/07/09 12:17:58;;;;;;;7.53;6.47;;;22.70;1.00;;;;;;4938608;29;20456;-69
2021/07/09 12:20:26;;;;;;;5.90;5.40;;;22.50;1.00;;;;;;4955394;29;20423;-69
2021/07/09 12:23:01;;;;;;;7.20;6.60;;;22.30;1.00;;;;;;4955329;29;20438;-69
2021/07/09 12:25:40;;;;;;;8.07;6.83;;;22.10;1.00;;;;;;4955344;29;20459;-69
2021/07/09 12:28:14;;;;;;;8.30;7.60;;;22.30;1.00;;;;;;4955507;29;20445;-69
2021/07/09 12:30:44;;;;;;;8.40;7.70;;;22.50;1.00;;;;;;4955257;29;20499;-69
2021/07/09 12:33:15;;;;;;;7.77;6.97;;;22.30;1.00;;;;;;4955246;29;20424;-69
2021/07/09 12:35:41;;;;;;;7.43;6.73;;;22.70;1.00;;;;;;4938218;29;20438;-69
2021/07/09 12:38:09;;;;;;;7.30;6.27;;;23.10;1.00;;;;;;4961657;28;20439;-70
2021/07/09 12:40:43;;;;;;;7.13;6.20;;;23.40;1.00;;;;;;4958097;28;20439;-70
2021/07/09 12:43:20;;;;;;;9.70;6.83;;;23.40;1.00;;;;;;4974895;28;20422;-70
2021/07/09 12:45:57;;;;;;;7.00;6.33;;;23.80;1.00;;;;;;4974581;28;20508;-70
2021/07/09 12:48:30;;;;;;;7.80;7.13;;;24.00;1.00;;;;;;4974577;28;20983;-70
2021/07/09 12:50:56;;;;;;;7.73;6.30;;;23.50;1.00;;;;;;4957583;28;20501;-70
2021/07/09 12:53:22;;;;;;;7.70;7.00;;;22.90;1.00;;;;;;4974819;28;20462;-69